Sign-in with your pilot id or email, or register

ICAO: NTAA Name / Country: Tahiti-Faaa / French Polynesia
Latitude: -17.5537 Longitude: -149.607
Total Arrivals:
Strict Standards: Non-static method AirportData::getarrflights() should not be called statically, assuming $this from incompatible context in /var/www/customers/vh-7192/web/home/phpvms/core/templates/airport_info.tpl on line 18
2
Total Departures:
Strict Standards: Non-static method AirportData::getdeptflights() should not be called statically, assuming $this from incompatible context in /var/www/customers/vh-7192/web/home/phpvms/core/templates/airport_info.tpl on line 21
0
Latest Arrival: MTA5PM (NTGI-NTAA) Tibor Berces Latest Departure: (-)
Metar: NTAA 271000Z AUTO VRB02KT 9999 FEW038 25/21 Q1016 NOSIG
More info

Charts for NTAA


NOTAM


Warning: file_get_contents(http://api.vateud.net/notams/NTAA.json): failed to open stream: Redirection limit reached, aborting in /var/www/customers/vh-7192/web/home/phpvms/core/common/NOTAMSData.class.php on line 18

Warning: Invalid argument supplied for foreach() in /var/www/customers/vh-7192/web/home/phpvms/core/common/NOTAMSData.class.php on line 22

Tahiti-Faaa